sensor_id;sensor_type;location;lat;lon;timestamp;pressure;altitude;pressure_sealevel;temperature;humidity
64253;BME280;50592;52.958;-7.470;2023-12-04T00:10:30;99139.88;;;1.96;100.00
64253;BME280;50592;52.958;-7.470;2023-12-04T00:13:15;99137.75;;;1.90;100.00
64253;BME280;50592;52.958;-7.470;2023-12-04T00:20:28;99120.72;;;1.85;100.00
64253;BME280;50592;52.958;-7.470;2023-12-04T00:26:42;99138.22;;;1.83;100.00
64253;BME280;50592;52.958;-7.470;2023-12-04T00:29:24;99118.81;;;1.88;100.00
64253;BME280;50592;52.958;-7.470;2023-12-04T00:32:04;99143.19;;;1.86;100.00
64253;BME280;50592;52.958;-7.470;2023-12-04T00:34:36;99137.66;;;1.80;100.00
64253;BME280;50592;52.958;-7.470;2023-12-04T00:37:11;99151.84;;;1.98;100.00
64253;BME280;50592;52.958;-7.470;2023-12-04T00:39:42;99130.41;;;1.95;100.00
64253;BME280;50592;52.958;-7.470;2023-12-04T00:42:41;99134.31;;;2.01;100.00
64253;BME280;50592;52.958;-7.470;2023-12-04T00:45:44;99137.03;;;1.99;100.00
64253;BME280;50592;52.958;-7.470;2023-12-04T00:48:16;99116.91;;;1.90;100.00
64253;BME280;50592;52.958;-7.470;2023-12-04T00:51:06;99131.13;;;1.97;100.00
64253;BME280;50592;52.958;-7.470;2023-12-04T00:54:02;99127.66;;;2.08;100.00
64253;BME280;50592;52.958;-7.470;2023-12-04T00:57:08;99122.22;;;2.00;100.00
64253;BME280;50592;52.958;-7.470;2023-12-04T01:04:11;99121.22;;;2.12;100.00
64253;BME280;50592;52.958;-7.470;2023-12-04T01:06:53;99125.03;;;2.08;100.00
64253;BME280;50592;52.958;-7.470;2023-12-04T01:30:41;99097.34;;;1.95;100.00
64253;BME280;50592;52.958;-7.470;2023-12-04T01:37:33;99096.41;;;1.96;100.00
64253;BME280;50592;52.958;-7.470;2023-12-04T01:40:02;99102.91;;;2.02;100.00
64253;BME280;50592;52.958;-7.470;2023-12-04T01:42:32;99103.28;;;1.97;100.00
64253;BME280;50592;52.958;-7.470;2023-12-04T01:45:01;99100.44;;;2.01;100.00
64253;BME280;50592;52.958;-7.470;2023-12-04T01:47:41;99089.41;;;1.97;100.00
64253;BME280;50592;52.958;-7.470;2023-12-04T01:50:18;99088.69;;;1.95;100.00
64253;BME280;50592;52.958;-7.470;2023-12-04T01:54:05;99093.56;;;1.88;100.00
64253;BME280;50592;52.958;-7.470;2023-12-04T02:04:34;99102.84;;;1.69;100.00
64253;BME280;50592;52.958;-7.470;2023-12-04T02:07:00;99105.94;;;1.63;100.00
64253;BME280;50592;52.958;-7.470;2023-12-04T02:10:50;99096.47;;;1.62;100.00
64253;BME280;50592;52.958;-7.470;2023-12-04T02:13:16;99096.81;;;1.57;100.00
64253;BME280;50592;52.958;-7.470;2023-12-04T02:18:40;99106.03;;;1.50;100.00
64253;BME280;50592;52.958;-7.470;2023-12-04T02:21:09;99105.72;;;1.43;100.00
64253;BME280;50592;52.958;-7.470;2023-12-04T02:27:36;99109.84;;;1.34;100.00
64253;BME280;50592;52.958;-7.470;2023-12-04T02:36:55;99101.78;;;1.15;100.00
64253;BME280;50592;52.958;-7.470;2023-12-04T02:50:53;99113.94;;;1.03;100.00
64253;BME280;50592;52.958;-7.470;2023-12-04T02:56:58;99113.09;;;1.02;100.00
64253;BME280;50592;52.958;-7.470;2023-12-04T02:59:34;99115.81;;;1.01;100.00
64253;BME280;50592;52.958;-7.470;2023-12-04T03:02:05;99107.22;;;1.00;100.00
64253;BME280;50592;52.958;-7.470;2023-12-04T03:04:39;99117.16;;;1.06;100.00
64253;BME280;50592;52.958;-7.470;2023-12-04T03:07:16;99097.25;;;1.05;100.00
64253;BME280;50592;52.958;-7.470;2023-12-04T03:09:48;99105.19;;;1.04;100.00
64253;BME280;50592;52.958;-7.470;2023-12-04T03:12:21;99113.00;;;1.04;100.00
64253;BME280;50592;52.958;-7.470;2023-12-04T03:14:57;99101.06;;;1.01;100.00
64253;BME280;50592;52.958;-7.470;2023-12-04T03:17:26;99103.66;;;1.01;100.00
64253;BME280;50592;52.958;-7.470;2023-12-04T03:20:00;99108.88;;;1.01;100.00
64253;BME280;50592;52.958;-7.470;2023-12-04T03:25:19;99103.66;;;1.01;100.00
64253;BME280;50592;52.958;-7.470;2023-12-04T03:27:47;99101.28;;;0.98;100.00
64253;BME280;50592;52.958;-7.470;2023-12-04T03:30:17;99101.28;;;0.98;100.00
64253;BME280;50592;52.958;-7.470;2023-12-04T03:33:03;99115.25;;;0.97;100.00
64253;BME280;50592;52.958;-7.470;2023-12-04T03:35:29;99111.94;;;0.95;100.00
64253;BME280;50592;52.958;-7.470;2023-12-04T03:38:03;99110.97;;;0.96;100.00
64253;BME280;50592;52.958;-7.470;2023-12-04T03:40:31;99106.50;;;0.98;100.00
64253;BME280;50592;52.958;-7.470;2023-12-04T03:43:00;99098.91;;;0.95;100.00
64253;BME280;50592;52.958;-7.470;2023-12-04T03:45:26;99106.59;;;0.96;100.00
64253;BME280;50592;52.958;-7.470;2023-12-04T03:47:52;99102.81;;;0.89;100.00
64253;BME280;50592;52.958;-7.470;2023-12-04T03:50:20;99111.66;;;0.86;100.00
64253;BME280;50592;52.958;-7.470;2023-12-04T03:52:46;99103.25;;;0.83;100.00
64253;BME280;50592;52.958;-7.470;2023-12-04T03:55:20;99111.56;;;0.88;100.00
64253;BME280;50592;52.958;-7.470;2023-12-04T03:57:51;99109.91;;;0.87;100.00
64253;BME280;50592;52.958;-7.470;2023-12-04T04:00:17;99103.06;;;0.86;100.00
64253;BME280;50592;52.958;-7.470;2023-12-04T04:02:57;99097.97;;;0.84;100.00
64253;BME280;50592;52.958;-7.470;2023-12-04T04:05:38;99100.22;;;0.89;100.00
64253;BME280;50592;52.958;-7.470;2023-12-04T04:08:08;99111.66;;;0.86;100.00
64253;BME280;50592;52.958;-7.470;2023-12-04T04:10:48;99115.72;;;0.91;100.00
64253;BME280;50592;52.958;-7.470;2023-12-04T04:13:35;99110.63;;;0.89;100.00
64253;BME280;50592;52.958;-7.470;2023-12-04T04:16:15;99095.72;;;0.91;100.00
64253;BME280;50592;52.958;-7.470;2023-12-04T04:19:05;99096.56;;;0.92;100.00
64253;BME280;50592;52.958;-7.470;2023-12-04T04:21:39;99104.00;;;0.96;100.00
64253;BME280;50592;52.958;-7.470;2023-12-04T04:24:07;99100.09;;;1.02;100.00
64253;BME280;50592;52.958;-7.470;2023-12-04T04:26:48;99098.22;;;1.04;100.00
64253;BME280;50592;52.958;-7.470;2023-12-04T04:29:14;99103.66;;;1.01;100.00
64253;BME280;50592;52.958;-7.470;2023-12-04T04:31:43;99089.81;;;1.01;100.00
64253;BME280;50592;52.958;-7.470;2023-12-04T04:34:23;99100.09;;;1.02;100.00
64253;BME280;50592;52.958;-7.470;2023-12-04T04:36:57;99108.88;;;1.01;100.00
64253;BME280;50592;52.958;-7.470;2023-12-04T04:39:35;99112.41;;;1.00;100.00
64253;BME280;50592;52.958;-7.470;2023-12-04T04:42:04;99120.91;;;1.02;100.00
64253;BME280;50592;52.958;-7.470;2023-12-04T04:44:30;99125.19;;;1.03;100.00
64253;BME280;50592;52.958;-7.470;2023-12-04T04:47:02;99123.53;;;1.02;100.00
64253;BME280;50592;52.958;-7.470;2023-12-04T04:49:30;99127.19;;;0.99;100.00
64253;BME280;50592;52.958;-7.470;2023-12-04T04:52:12;99111.34;;;1.03;100.00
64253;BME280;50592;52.958;-7.470;2023-12-04T04:54:52;99124.59;;;0.99;100.00
64253;BME280;50592;52.958;-7.470;2023-12-04T04:57:18;99128.03;;;1.00;100.00
64253;BME280;50592;52.958;-7.470;2023-12-04T05:00:06;99133.00;;;1.03;100.00
64253;BME280;50592;52.958;-7.470;2023-12-04T05:02:53;99124.84;;;1.08;100.00
64253;BME280;50592;52.958;-7.470;2023-12-04T05:05:28;99145.91;;;1.05;100.00
64253;BME280;50592;52.958;-7.470;2023-12-04T05:07:59;99143.53;;;1.02;100.00
64253;BME280;50592;52.958;-7.470;2023-12-04T05:10:37;99145.28;;;1.01;100.00
64253;BME280;50592;52.958;-7.470;2023-12-04T05:13:08;99124.72;;;0.98;100.00
64253;BME280;50592;52.958;-7.470;2023-12-04T05:15:34;99149.09;;;0.97;100.00
64253;BME280;50592;52.958;-7.470;2023-12-04T05:18:00;99151.69;;;0.97;100.00
64253;BME280;50592;52.958;-7.470;2023-12-04T05:20:34;99170.25;;;0.92;100.00
64253;BME280;50592;52.958;-7.470;2023-12-04T05:23:10;99158.25;;;0.90;100.00
64253;BME280;50592;52.958;-7.470;2023-12-04T05:25:39;99166.31;;;0.86;100.00
64253;BME280;50592;52.958;-7.470;2023-12-04T05:28:05;99153.53;;;0.83;100.00
64253;BME280;50592;52.958;-7.470;2023-12-04T05:30:33;99160.59;;;0.81;100.00
64253;BME280;50592;52.958;-7.470;2023-12-04T05:33:01;99169.84;;;0.85;100.00
64253;BME280;50592;52.958;-7.470;2023-12-04T05:35:43;99171.16;;;0.91;100.00
64253;BME280;50592;52.958;-7.470;2023-12-04T05:38:20;99174.16;;;0.98;100.00
64253;BME280;50592;52.958;-7.470;2023-12-04T05:40:48;99165.38;;;0.99;100.00
64253;BME280;50592;52.958;-7.470;2023-12-04T05:43:17;99179.00;;;1.03;100.00
64253;BME280;50592;52.958;-7.470;2023-12-04T05:45:44;99169.44;;;1.03;100.00
64253;BME280;50592;52.958;-7.470;2023-12-04T05:48:10;99171.81;;;1.06;100.00
64253;BME280;50592;52.958;-7.470;2023-12-04T05:50:41;99191.44;;;1.10;100.00
64253;BME280;50592;52.958;-7.470;2023-12-04T05:53:09;99169.66;;;1.11;100.00
64253;BME280;50592;52.958;-7.470;2023-12-04T05:55:38;99181.41;;;1.17;100.00
64253;BME280;50592;52.958;-7.470;2023-12-04T05:58:05;99193.59;;;1.17;100.00
64253;BME280;50592;52.958;-7.470;2023-12-04T06:00:31;99194.44;;;1.17;100.00
64253;BME280;50592;52.958;-7.470;2023-12-04T06:03:00;99195.72;;;1.23;100.00
64253;BME280;50592;52.958;-7.470;2023-12-04T06:05:26;99205.00;;;1.27;100.00
64253;BME280;50592;52.958;-7.470;2023-12-04T06:07:57;99206.63;;;1.28;100.00
64253;BME280;50592;52.958;-7.470;2023-12-04T06:10:23;99204.16;;;1.27;100.00
64253;BME280;50592;52.958;-7.470;2023-12-04T06:12:54;99214.31;;;1.30;100.00
64253;BME280;50592;52.958;-7.470;2023-12-04T06:15:20;99209.00;;;1.31;100.00
64253;BME280;50592;52.958;-7.470;2023-12-04T06:17:49;99209.72;;;1.33;100.00
64253;BME280;50592;52.958;-7.470;2023-12-04T06:20:19;99212.22;;;1.35;100.00
64253;BME280;50592;52.958;-7.470;2023-12-04T06:22:45;99207.59;;;1.39;100.00
64253;BME280;50592;52.958;-7.470;2023-12-04T06:25:17;99215.50;;;1.37;100.00
64253;BME280;50592;52.958;-7.470;2023-12-04T06:27:44;99203.56;;;1.34;100.00
64253;BME280;50592;52.958;-7.470;2023-12-04T06:30:10;99211.84;;;1.28;100.00
64253;BME280;50592;52.958;-7.470;2023-12-04T06:32:38;99210.31;;;1.26;100.00
64253;BME280;50592;52.958;-7.470;2023-12-04T06:35:04;99224.81;;;1.17;100.00
64253;BME280;50592;52.958;-7.470;2023-12-04T06:37:30;99217.81;;;1.06;100.00
64253;BME280;50592;52.958;-7.470;2023-12-04T06:40:00;99222.50;;;1.01;100.00
64253;BME280;50592;52.958;-7.470;2023-12-04T06:42:31;99218.50;;;0.96;100.00
64253;BME280;50592;52.958;-7.470;2023-12-04T06:44:57;99227.59;;;0.91;100.00
64253;BME280;50592;52.958;-7.470;2023-12-04T06:47:23;99227.69;;;0.89;100.00
64253;BME280;50592;52.958;-7.470;2023-12-04T06:49:52;99229.47;;;0.89;100.00
64253;BME280;50592;52.958;-7.470;2023-12-04T06:52:21;99226.75;;;0.90;100.00
64253;BME280;50592;52.958;-7.470;2023-12-04T06:54:47;99240.94;;;0.86;100.00
64253;BME280;50592;52.958;-7.470;2023-12-04T06:57:13;99235.13;;;0.82;100.00
64253;BME280;50592;52.958;-7.470;2023-12-04T06:59:43;99241.78;;;0.73;100.00
64253;BME280;50592;52.958;-7.470;2023-12-04T07:02:09;99242.41;;;0.77;100.00
64253;BME280;50592;52.958;-7.470;2023-12-04T07:04:35;99247.50;;;0.79;100.00
64253;BME280;50592;52.958;-7.470;2023-12-04T07:07:13;99243.94;;;0.80;100.00
64253;BME280;50592;52.958;-7.470;2023-12-04T07:09:39;99246.44;;;0.81;100.00
64253;BME280;50592;52.958;-7.470;2023-12-04T07:12:05;99250.84;;;0.81;100.00
64253;BME280;50592;52.958;-7.470;2023-12-04T07:14:32;99242.91;;;0.82;100.00
64253;BME280;50592;52.958;-7.470;2023-12-04T07:17:00;99242.91;;;0.82;100.00
64253;BME280;50592;52.958;-7.470;2023-12-04T07:19:26;99252.59;;;0.80;100.00
64253;BME280;50592;52.958;-7.470;2023-12-04T07:21:56;99250.72;;;0.82;100.00
64253;BME280;50592;52.958;-7.470;2023-12-04T07:24:24;99247.16;;;0.83;100.00
64253;BME280;50592;52.958;-7.470;2023-12-04T07:26:54;99245.63;;;0.81;100.00
64253;BME280;50592;52.958;-7.470;2023-12-04T07:29:25;99251.53;;;0.83;100.00
64253;BME280;50592;52.958;-7.470;2023-12-04T07:31:51;99250.09;;;0.79;100.00
64253;BME280;50592;52.958;-7.470;2023-12-04T07:34:20;99254.13;;;0.83;100.00
64253;BME280;50592;52.958;-7.470;2023-12-04T07:36:53;99265.72;;;0.79;100.00
64253;BME280;50592;52.958;-7.470;2023-12-04T07:39:30;99259.91;;;0.75;100.00
64253;BME280;50592;52.958;-7.470;2023-12-04T07:42:04;99255.31;;;0.79;100.00
64253;BME280;50592;52.958;-7.470;2023-12-04T07:44:30;99262.06;;;0.81;100.00
64253;BME280;50592;52.958;-7.470;2023-12-04T07:46:59;99264.47;;;0.84;100.00
64253;BME280;50592;52.958;-7.470;2023-12-04T07:49:28;99266.84;;;0.88;100.00
64253;BME280;50592;52.958;-7.470;2023-12-04T07:51:54;99257.97;;;0.90;100.00
64253;BME280;50592;52.958;-7.470;2023-12-04T07:54:22;99266.63;;;0.91;100.00
64253;BME280;50592;52.958;-7.470;2023-12-04T07:56:51;99270.03;;;0.91;100.00
64253;BME280;50592;52.958;-7.470;2023-12-04T07:59:18;99277.59;;;0.94;100.00
64253;BME280;50592;52.958;-7.470;2023-12-04T08:01:49;99284.09;;;0.89;100.00
64253;BME280;50592;52.958;-7.470;2023-12-04T08:04:18;99278.78;;;0.90;100.00
64253;BME280;50592;52.958;-7.470;2023-12-04T08:07:11;99282.44;;;0.88;100.00
64253;BME280;50592;52.958;-7.470;2023-12-04T08:12:45;99284.81;;;0.91;100.00
64253;BME280;50592;52.958;-7.470;2023-12-04T08:15:12;99277.94;;;0.90;100.00
64253;BME280;50592;52.958;-7.470;2023-12-04T08:17:37;99296.88;;;0.92;100.00
64253;BME280;50592;52.958;-7.470;2023-12-04T08:20:03;99293.34;;;0.93;100.00
64253;BME280;50592;52.958;-7.470;2023-12-04T08:22:29;99295.59;;;0.97;100.00
64253;BME280;50592;52.958;-7.470;2023-12-04T08:24:55;99298.31;;;0.96;100.00
64253;BME280;50592;52.958;-7.470;2023-12-04T08:27:20;99295.81;;;0.94;100.00
64253;BME280;50592;52.958;-7.470;2023-12-04T08:29:46;99297.84;;;0.91;100.00
64253;BME280;50592;52.958;-7.470;2023-12-04T08:32:11;99297.72;;;0.92;100.00
64253;BME280;50592;52.958;-7.470;2023-12-04T08:34:37;99306.34;;;0.93;100.00
64253;BME280;50592;52.958;-7.470;2023-12-04T08:37:03;99295.13;;;0.92;100.00
64253;BME280;50592;52.958;-7.470;2023-12-04T08:39:28;99303.75;;;0.93;100.00
64253;BME280;50592;52.958;-7.470;2023-12-04T08:41:54;99294.16;;;0.93;100.00
64253;BME280;50592;52.958;-7.470;2023-12-04T08:44:19;99305.41;;;0.94;100.00
64253;BME280;50592;52.958;-7.470;2023-12-04T08:46:45;99323.53;;;0.95;100.00
64253;BME280;50592;52.958;-7.470;2023-12-04T08:49:10;99318.22;;;0.97;100.00
64253;BME280;50592;52.958;-7.470;2023-12-04T08:51:36;99314.03;;;0.94;100.00
64253;BME280;50592;52.958;-7.470;2023-12-04T08:54:02;99320.69;;;0.98;100.00
64253;BME280;50592;52.958;-7.470;2023-12-04T08:56:28;99312.38;;;0.93;100.00
64253;BME280;50592;52.958;-7.470;2023-12-04T08:58:54;99315.72;;;0.95;100.00
64253;BME280;50592;52.958;-7.470;2023-12-04T09:01:20;99311.84;;;1.01;100.00
64253;BME280;50592;52.958;-7.470;2023-12-04T09:03:46;99312.56;;;1.03;100.00
64253;BME280;50592;52.958;-7.470;2023-12-04T09:06:11;99325.19;;;0.96;100.00
64253;BME280;50592;52.958;-7.470;2023-12-04T09:08:37;99328.28;;;1.02;100.00
64253;BME280;50592;52.958;-7.470;2023-12-04T09:11:02;99335.03;;;1.04;100.00
64253;BME280;50592;52.958;-7.470;2023-12-04T09:13:31;99339.28;;;1.05;100.00
64253;BME280;50592;52.958;-7.470;2023-12-04T09:15:58;99341.56;;;1.10;100.00
64253;BME280;50592;52.958;-7.470;2023-12-04T09:18:23;99340.53;;;1.13;100.00
64253;BME280;50592;52.958;-7.470;2023-12-04T09:20:49;99339.97;;;1.20;100.00
64253;BME280;50592;52.958;-7.470;2023-12-04T09:23:14;99347.44;;;1.25;100.00
64253;BME280;50592;52.958;-7.470;2023-12-04T09:25:40;99350.78;;;1.27;100.00
64253;BME280;50592;52.958;-7.470;2023-12-04T09:28:06;99348.53;;;1.34;100.00
64253;BME280;50592;52.958;-7.470;2023-12-04T09:30:33;99347.28;;;1.40;100.00
64253;BME280;50592;52.958;-7.470;2023-12-04T09:32:59;99340.66;;;1.47;100.00
64253;BME280;50592;52.958;-7.470;2023-12-04T09:35:25;99351.81;;;1.49;100.00
64253;BME280;50592;52.958;-7.470;2023-12-04T09:37:50;99355.72;;;1.55;100.00
64253;BME280;50592;52.958;-7.470;2023-12-04T09:40:16;99346.03;;;1.57;100.00
64253;BME280;50592;52.958;-7.470;2023-12-04T09:42:41;99342.34;;;1.59;100.00
64253;BME280;50592;52.958;-7.470;2023-12-04T09:45:08;99342.22;;;1.61;100.00
64253;BME280;50592;52.958;-7.470;2023-12-04T09:47:34;99349.72;;;1.66;100.00
64253;BME280;50592;52.958;-7.470;2023-12-04T09:50:00;99349.28;;;1.72;100.00
64253;BME280;50592;52.958;-7.470;2023-12-04T09:52:27;99356.75;;;1.77;100.00
64253;BME280;50592;52.958;-7.470;2023-12-04T09:54:52;99360.06;;;1.79;100.00
64253;BME280;50592;52.958;-7.470;2023-12-04T09:57:18;99357.94;;;1.84;100.00
64253;BME280;50592;52.958;-7.470;2023-12-04T09:59:44;99370.84;;;1.85;100.00
64253;BME280;50592;52.958;-7.470;2023-12-04T10:02:10;99375.84;;;1.89;100.00
64253;BME280;50592;52.958;-7.470;2023-12-04T10:04:36;99383.44;;;1.92;100.00
64253;BME280;50592;52.958;-7.470;2023-12-04T10:07:02;99374.53;;;1.94;100.00
64253;BME280;50592;52.958;-7.470;2023-12-04T10:09:28;99377.03;;;1.96;100.00
64253;BME280;50592;52.958;-7.470;2023-12-04T10:11:55;99371.72;;;1.97;100.00
64253;BME280;50592;52.958;-7.470;2023-12-04T10:14:21;99376.59;;;2.02;100.00
64253;BME280;50592;52.958;-7.470;2023-12-04T10:16:47;99373.38;;;1.98;100.00
64253;BME280;50592;52.958;-7.470;2023-12-04T10:19:27;99380.25;;;2.00;100.00
64253;BME280;50592;52.958;-7.470;2023-12-04T10:21:55;99383.56;;;2.02;100.00
64253;BME280;50592;52.958;-7.470;2023-12-04T10:24:30;99376.59;;;2.02;100.00
64253;BME280;50592;52.958;-7.470;2023-12-04T10:26:57;99389.38;;;2.05;100.00
64253;BME280;50592;52.958;-7.470;2023-12-04T10:29:23;99386.56;;;2.08;100.00
64253;BME280;50592;52.958;-7.470;2023-12-04T10:31:50;99397.44;;;2.14;100.00
64253;BME280;50592;52.958;-7.470;2023-12-04T10:34:16;99393.19;;;2.13;100.00
64253;BME280;50592;52.958;-7.470;2023-12-04T10:36:41;99387.84;;;2.14;100.00
64253;BME280;50592;52.958;-7.470;2023-12-04T10:39:07;99402.19;;;2.20;100.00
64253;BME280;50592;52.958;-7.470;2023-12-04T10:41:33;99395.59;;;2.27;100.00
64253;BME280;50592;52.958;-7.470;2023-12-04T10:43:58;99400.94;;;2.37;100.00
64253;BME280;50592;52.958;-7.470;2023-12-04T10:46:26;99394.66;;;2.40;100.00
64253;BME280;50592;52.958;-7.470;2023-12-04T10:48:52;99405.69;;;2.43;100.00
64253;BME280;50592;52.958;-7.470;2023-12-04T10:51:18;99393.31;;;2.45;100.00
64253;BME280;50592;52.958;-7.470;2023-12-04T10:53:44;99398.53;;;2.45;100.00
64253;BME280;50592;52.958;-7.470;2023-12-04T10:56:10;99404.00;;;2.54;100.00
64253;BME280;50592;52.958;-7.470;2023-12-04T10:58:38;99414.94;;;2.59;100.00
64253;BME280;50592;52.958;-7.470;2023-12-04T11:01:05;99402.50;;;2.63;100.00
64253;BME280;50592;52.958;-7.470;2023-12-04T11:03:40;99412.44;;;2.69;100.00
64253;BME280;50592;52.958;-7.470;2023-12-04T11:06:06;99407.00;;;2.72;100.00
64253;BME280;50592;52.958;-7.470;2023-12-04T11:08:35;99413.63;;;2.76;100.00
64253;BME280;50592;52.958;-7.470;2023-12-04T11:11:02;99421.44;;;2.76;100.00
64253;BME280;50592;52.958;-7.470;2023-12-04T11:13:34;99421.44;;;2.76;100.00
64253;BME280;50592;52.958;-7.470;2023-12-04T11:18:48;99412.66;;;2.77;100.00
64253;BME280;50592;52.958;-7.470;2023-12-04T11:21:16;99416.81;;;2.80;100.00
64253;BME280;50592;52.958;-7.470;2023-12-04T11:23:45;99404.50;;;2.82;100.00
64253;BME280;50592;52.958;-7.470;2023-12-04T11:26:11;99403.91;;;2.90;100.00
64253;BME280;50592;52.958;-7.470;2023-12-04T11:28:37;99404.59;;;2.92;100.00
64253;BME280;50592;52.958;-7.470;2023-12-04T11:31:05;99416.72;;;2.93;100.00
64253;BME280;50592;52.958;-7.470;2023-12-04T11:33:35;99407.69;;;2.97;100.00
64253;BME280;50592;52.958;-7.470;2023-12-04T11:36:08;99411.81;;;3.00;100.00
64253;BME280;50592;52.958;-7.470;2023-12-04T11:38:34;99419.53;;;3.01;100.00
64253;BME280;50592;52.958;-7.470;2023-12-04T11:41:11;99411.44;;;3.04;100.00
64253;BME280;50592;52.958;-7.470;2023-12-04T11:43:39;99414.91;;;3.05;100.00
64253;BME280;50592;52.958;-7.470;2023-12-04T11:46:08;99407.28;;;3.13;100.00
64253;BME280;50592;52.958;-7.470;2023-12-04T11:48:37;99414.63;;;3.19;100.00
64253;BME280;50592;52.958;-7.470;2023-12-04T11:51:04;99416.75;;;3.26;100.00
64253;BME280;50592;52.958;-7.470;2023-12-04T11:53:32;99426.38;;;3.25;100.00
64253;BME280;50592;52.958;-7.470;2023-12-04T11:55:58;99421.88;;;3.27;100.00
64253;BME280;50592;52.958;-7.470;2023-12-04T11:58:28;99421.63;;;3.30;100.00
64253;BME280;50592;52.958;-7.470;2023-12-04T12:00:54;99423.25;;;3.31;100.00
64253;BME280;50592;52.958;-7.470;2023-12-04T12:03:21;99419.97;;;3.29;100.00
64253;BME280;50592;52.958;-7.470;2023-12-04T12:05:47;99422.34;;;3.32;100.00
64253;BME280;50592;52.958;-7.470;2023-12-04T12:08:14;99417.78;;;3.34;100.00
64253;BME280;50592;52.958;-7.470;2023-12-04T12:10:39;99419.59;;;3.34;100.00
64253;BME280;50592;52.958;-7.470;2023-12-04T12:13:05;99425.97;;;3.41;100.00
64253;BME280;50592;52.958;-7.470;2023-12-04T12:15:34;99423.25;;;3.43;100.00
64253;BME280;50592;52.958;-7.470;2023-12-04T12:18:02;99425.72;;;3.44;100.00
64253;BME280;50592;52.958;-7.470;2023-12-04T12:20:29;99417.97;;;3.54;100.00
64253;BME280;50592;52.958;-7.470;2023-12-04T12:22:56;99421.31;;;3.56;100.00
64253;BME280;50592;52.958;-7.470;2023-12-04T12:25:22;99417.84;;;3.56;100.00
64253;BME280;50592;52.958;-7.470;2023-12-04T12:27:52;99426.41;;;3.58;100.00
64253;BME280;50592;52.958;-7.470;2023-12-04T12:30:18;99424.72;;;3.57;100.00
64253;BME280;50592;52.958;-7.470;2023-12-04T12:32:45;99418.44;;;3.59;100.00
64253;BME280;50592;52.958;-7.470;2023-12-04T12:35:10;99417.22;;;3.64;100.00
64253;BME280;50592;52.958;-7.470;2023-12-04T12:37:38;99409.97;;;3.67;100.00
64253;BME280;50592;52.958;-7.470;2023-12-04T12:40:05;99411.38;;;3.71;100.00
64253;BME280;50592;52.958;-7.470;2023-12-04T12:42:35;99417.31;;;3.74;100.00
64253;BME280;50592;52.958;-7.470;2023-12-04T12:45:01;99407.97;;;3.71;100.00
64253;BME280;50592;52.958;-7.470;2023-12-04T12:47:28;99411.47;;;3.81;100.00
64253;BME280;50592;52.958;-7.470;2023-12-04T12:49:55;99405.00;;;3.85;100.00
64253;BME280;50592;52.958;-7.470;2023-12-04T12:52:21;99415.09;;;3.90;100.00
64253;BME280;50592;52.958;-7.470;2023-12-04T12:54:47;99416.25;;;3.97;100.00
64253;BME280;50592;52.958;-7.470;2023-12-04T12:57:14;99409.72;;;3.92;100.00
64253;BME280;50592;52.958;-7.470;2023-12-04T12:59:43;99416.38;;;3.96;100.00
64253;BME280;50592;52.958;-7.470;2023-12-04T13:02:10;99416.38;;;3.96;100.00
64253;BME280;50592;52.958;-7.470;2023-12-04T13:04:45;99422.38;;;3.87;100.00
64253;BME280;50592;52.958;-7.470;2023-12-04T13:07:11;99433.75;;;3.85;100.00
64253;BME280;50592;52.958;-7.470;2023-12-04T13:09:38;99428.50;;;3.76;100.00
64253;BME280;50592;52.958;-7.470;2023-12-04T13:12:07;99434.22;;;3.69;100.00
64253;BME280;50592;52.958;-7.470;2023-12-04T13:14:35;99423.44;;;3.63;100.00
64253;BME280;50592;52.958;-7.470;2023-12-04T13:17:01;99432.91;;;3.64;100.00
64253;BME280;50592;52.958;-7.470;2023-12-04T13:19:27;99435.41;;;3.65;100.00
64253;BME280;50592;52.958;-7.470;2023-12-04T13:21:55;99431.72;;;3.68;100.00
64253;BME280;50592;52.958;-7.470;2023-12-04T13:24:26;99435.28;;;3.67;100.00
64253;BME280;50592;52.958;-7.470;2023-12-04T13:26:53;99432.06;;;3.63;100.00
64253;BME280;50592;52.958;-7.470;2023-12-04T13:29:28;99428.53;;;3.64;100.00
64253;BME280;50592;52.958;-7.470;2023-12-04T13:31:54;99429.47;;;3.63;100.00
64253;BME280;50592;52.958;-7.470;2023-12-04T13:34:21;99425.53;;;3.69;100.00
64253;BME280;50592;52.958;-7.470;2023-12-04T13:36:48;99430.31;;;3.64;100.00
64253;BME280;50592;52.958;-7.470;2023-12-04T13:39:14;99425.19;;;3.62;100.00
64253;BME280;50592;52.958;-7.470;2023-12-04T13:41:46;99423.44;;;3.63;100.00
64253;BME280;50592;52.958;-7.470;2023-12-04T13:44:32;99428.16;;;3.69;100.00
64253;BME280;50592;52.958;-7.470;2023-12-04T13:47:00;99429.94;;;3.68;100.00
64253;BME280;50592;52.958;-7.470;2023-12-04T13:49:26;99437.25;;;3.75;100.00
64253;BME280;50592;52.958;-7.470;2023-12-04T13:51:52;99427.97;;;3.82;100.00
64253;BME280;50592;52.958;-7.470;2023-12-04T13:54:19;99434.72;;;3.84;100.00
64253;BME280;50592;52.958;-7.470;2023-12-04T13:56:47;99425.66;;;3.89;100.00
64253;BME280;50592;52.958;-7.470;2023-12-04T13:59:22;99425.88;;;3.97;100.00
64253;BME280;50592;52.958;-7.470;2023-12-04T14:01:49;99437.50;;;4.04;100.00
64253;BME280;50592;52.958;-7.470;2023-12-04T14:04:17;99441.84;;;4.15;100.00
64253;BME280;50592;52.958;-7.470;2023-12-04T14:06:43;99436.69;;;4.25;100.00
64253;BME280;50592;52.958;-7.470;2023-12-04T14:09:12;99443.44;;;4.28;100.00
64253;BME280;50592;52.958;-7.470;2023-12-04T14:11:45;99445.91;;;4.29;100.00
64253;BME280;50592;52.958;-7.470;2023-12-04T14:14:14;99442.59;;;4.27;100.00
64253;BME280;50592;52.958;-7.470;2023-12-04T14:16:41;99445.47;;;4.24;100.00
64253;BME280;50592;52.958;-7.470;2023-12-04T14:19:14;99442.59;;;4.27;100.00
64253;BME280;50592;52.958;-7.470;2023-12-04T14:21:42;99447.31;;;4.12;100.00
64253;BME280;50592;52.958;-7.470;2023-12-04T14:24:08;99450.19;;;4.09;100.00
64253;BME280;50592;52.958;-7.470;2023-12-04T14:26:35;99447.13;;;4.04;100.00
64253;BME280;50592;52.958;-7.470;2023-12-04T14:29:12;99449.88;;;4.02;100.00
64253;BME280;50592;52.958;-7.470;2023-12-04T14:31:39;99449.16;;;4.00;100.00
64253;BME280;50592;52.958;-7.470;2023-12-04T14:34:09;99447.13;;;4.04;100.00
64253;BME280;50592;52.958;-7.470;2023-12-04T14:36:38;99454.72;;;4.07;100.00
64253;BME280;50592;52.958;-7.470;2023-12-04T14:39:09;99464.16;;;3.98;100.00